createdAt,value
2022-12-27T00:00:14.183Z,101474.16
2022-12-27T00:02:43.736Z,101477.06
2022-12-27T00:05:13.760Z,101485.13
2022-12-27T00:07:44.427Z,101486.66
2022-12-27T00:10:13.572Z,101493.75
2022-12-27T00:12:42.563Z,101499.91
2022-12-27T00:15:12.723Z,101496.03
2022-12-27T00:17:42.199Z,101501.88
2022-12-27T00:20:12.133Z,101509.72
2022-12-27T00:22:44.002Z,101511.28
2022-12-27T00:25:12.803Z,101511.13
2022-12-27T00:27:42.507Z,101512.31
2022-12-27T00:30:13.480Z,101512.44
2022-12-27T00:32:41.912Z,101519.47
2022-12-27T00:35:12.214Z,101510.97
2022-12-27T00:37:40.386Z,101516.94
2022-12-27T00:40:09.949Z,101524.47
2022-12-27T00:42:38.375Z,101527.13
2022-12-27T00:45:08.955Z,101524.84
2022-12-27T00:47:38.941Z,101533.78
2022-12-27T00:50:12.643Z,101526.88
2022-12-27T00:52:41.050Z,101533.31
2022-12-27T00:55:09.970Z,101531.22
2022-12-27T00:57:39.684Z,101531.09
2022-12-27T01:00:12.339Z,101535.41
2022-12-27T01:02:42.473Z,101528.78
2022-12-27T01:05:10.561Z,101531.09
2022-12-27T01:07:38.926Z,101541.00
2022-12-27T01:10:07.509Z,101544.19
2022-12-27T01:12:37.280Z,101559.72
2022-12-27T01:15:07.816Z,101559.13
2022-12-27T01:17:36.216Z,101557.25
2022-12-27T01:20:07.574Z,101557.31
2022-12-27T01:22:36.416Z,101571.53
2022-12-27T01:25:05.615Z,101569.69
2022-12-27T01:27:33.970Z,101565.78
2022-12-27T01:30:02.541Z,101574.16
2022-12-27T01:32:30.666Z,101571.88
2022-12-27T01:35:01.759Z,101578.28
2022-12-27T01:37:32.141Z,101579.50
2022-12-27T01:40:01.626Z,101577.97
2022-12-27T01:42:48.386Z,101583.72
2022-12-27T01:45:21.063Z,101580.38
2022-12-27T01:47:55.281Z,101591.25
2022-12-27T01:50:29.093Z,101594.16
2022-12-27T01:53:06.430Z,101591.91
2022-12-27T01:55:42.703Z,101596.75
2022-12-27T01:58:14.727Z,101598.00
2022-12-27T02:00:45.364Z,101600.41
2022-12-27T02:03:19.338Z,101616.06
2022-12-27T02:05:47.977Z,101611.81
2022-12-27T02:08:25.318Z,101611.03
2022-12-27T02:10:56.759Z,101610.53
2022-12-27T02:13:27.941Z,101606.41
2022-12-27T02:15:56.778Z,101613.13
2022-12-27T02:18:25.180Z,101620.16
2022-12-27T02:21:05.067Z,101610.75
2022-12-27T02:24:07.087Z,101609.88
2022-12-27T02:26:52.103Z,101612.22
2022-12-27T02:29:42.626Z,101612.09
2022-12-27T02:32:17.853Z,101624.72
2022-12-27T02:34:53.298Z,101626.13
2022-12-27T02:37:26.648Z,101621.53
2022-12-27T02:40:18.251Z,101629.66
2022-12-27T02:43:07.398Z,101635.31
2022-12-27T02:46:01.087Z,101633.63
2022-12-27T02:48:47.464Z,101639.06
2022-12-27T02:51:50.450Z,101638.09
2022-12-27T02:54:36.839Z,101638.19
2022-12-27T02:57:16.149Z,101638.09
2022-12-27T03:00:18.714Z,101628.75
2022-12-27T03:03:18.979Z,101627.28
2022-12-27T03:06:22.164Z,101631.88
2022-12-27T03:08:57.448Z,101635.28
2022-12-27T03:11:46.396Z,101642.56
2022-12-27T03:14:51.921Z,101640.47
2022-12-27T03:17:27.331Z,101632.31
2022-12-27T03:20:22.648Z,101641.91
2022-12-27T03:23:10.821Z,101640.38
2022-12-27T03:25:43.641Z,101639.91
2022-12-27T03:28:36.388Z,101636.59
2022-12-27T03:31:28.825Z,101634.34
2022-12-27T03:34:25.719Z,101641.47
2022-12-27T03:37:15.345Z,101639.06
2022-12-27T03:39:47.872Z,101645.56
2022-12-27T03:42:39.435Z,101645.72
2022-12-27T03:45:08.905Z,101642.06
2022-12-27T03:47:44.290Z,101649.91
2022-12-27T03:50:21.688Z,101660.81
2022-12-27T03:52:58.646Z,101647.31
2022-12-27T03:55:33.132Z,101642.97
2022-12-27T03:58:02.396Z,101649.03
2022-12-27T04:00:31.110Z,101642.66
2022-12-27T04:02:59.771Z,101636.25
2022-12-27T04:05:28.581Z,101644.59
2022-12-27T04:08:16.807Z,101648.38
2022-12-27T04:11:05.193Z,101648.22
2022-12-27T04:13:51.279Z,101650.47
2022-12-27T04:16:37.235Z,101639.84
2022-12-27T04:19:24.584Z,101661.25
2022-12-27T04:22:10.476Z,101655.28
2022-12-27T04:24:58.889Z,101646.16
2022-12-27T04:27:45.016Z,101646.63
2022-12-27T04:30:32.039Z,101651.84
2022-12-27T04:33:18.389Z,101644.09
2022-12-27T04:35:47.199Z,101648.63
2022-12-27T04:38:15.499Z,101641.53
2022-12-27T04:41:04.717Z,101642.81
2022-12-27T04:43:50.929Z,101650.66
2022-12-27T04:46:41.324Z,101649.03
2022-12-27T04:49:33.502Z,101647.97
2022-12-27T04:52:19.995Z,101653.91
2022-12-27T04:55:00.409Z,101654.94
2022-12-27T04:57:30.957Z,101644.59
2022-12-27T05:00:17.327Z,101647.88
2022-12-27T05:02:47.125Z,101649.13
2022-12-27T05:05:15.837Z,101648.59
2022-12-27T05:08:03.352Z,101663.34
2022-12-27T05:10:50.207Z,101659.00
2022-12-27T05:13:37.419Z,101663.25
2022-12-27T05:16:07.744Z,101668.41
2022-12-27T05:18:35.900Z,101670.84
2022-12-27T05:21:08.107Z,101685.06
2022-12-27T05:23:56.783Z,101677.88
2022-12-27T05:26:30.092Z,101688.22
2022-12-27T05:29:02.018Z,101680.19
2022-12-27T05:31:31.045Z,101687.00
2022-12-27T05:33:59.973Z,101685.75
2022-12-27T05:36:29.332Z,101690.03
2022-12-27T05:38:58.936Z,101686.09
2022-12-27T05:41:27.499Z,101681.03
2022-12-27T05:43:55.813Z,101692.41
2022-12-27T05:46:25.509Z,101692.78
2022-12-27T05:48:56.418Z,101692.72
2022-12-27T05:51:24.887Z,101691.69
2022-12-27T05:53:53.103Z,101689.06
2022-12-27T05:56:22.911Z,101699.69
2022-12-27T05:58:55.251Z,101693.06
2022-12-27T06:01:25.213Z,101692.38
2022-12-27T06:03:53.334Z,101701.97
2022-12-27T06:06:23.182Z,101703.31
2022-12-27T06:08:51.631Z,101712.16
2022-12-27T06:11:20.780Z,101719.59
2022-12-27T06:13:52.385Z,101720.41
2022-12-27T06:16:23.384Z,101723.44
2022-12-27T06:18:52.880Z,101725.28
2022-12-27T06:21:22.565Z,101724.09
2022-12-27T06:23:51.576Z,101725.03
2022-12-27T06:26:22.661Z,101727.44
2022-12-27T06:28:54.695Z,101725.75
2022-12-27T06:31:23.941Z,101729.41
2022-12-27T06:33:54.347Z,101733.63
2022-12-27T06:36:26.391Z,101731.03
2022-12-27T06:38:58.649Z,101728.28
2022-12-27T06:41:27.387Z,101743.19
2022-12-27T06:43:58.200Z,101737.09
2022-12-27T06:46:27.845Z,101735.13
2022-12-27T06:48:58.475Z,101734.38
2022-12-27T06:51:26.945Z,101745.91
2022-12-27T06:53:55.030Z,101742.13
2022-12-27T06:56:25.784Z,101752.59
2022-12-27T06:58:54.570Z,101760.81
2022-12-27T07:01:26.264Z,101750.03
2022-12-27T07:03:58.099Z,101746.47
2022-12-27T07:06:28.187Z,101767.94
2022-12-27T07:08:57.668Z,101758.66
2022-12-27T07:11:26.862Z,101758.97
2022-12-27T07:13:56.935Z,101759.84
2022-12-27T07:16:27.081Z,101767.50
2022-12-27T07:18:58.787Z,101772.34
2022-12-27T07:21:29.152Z,101778.25
2022-12-27T07:23:58.600Z,101776.28
2022-12-27T07:26:31.285Z,101775.06
2022-12-27T07:29:01.091Z,101791.72
2022-12-27T07:31:30.187Z,101793.69
2022-12-27T07:34:01.774Z,101802.03
2022-12-27T07:36:33.091Z,101809.66
2022-12-27T07:39:01.579Z,101810.88
2022-12-27T07:41:30.181Z,101812.22
2022-12-27T07:44:01.922Z,101809.66
2022-12-27T07:46:32.967Z,101804.66
2022-12-27T07:49:02.508Z,101801.78
2022-12-27T07:51:30.845Z,101809.25
2022-12-27T07:53:59.357Z,101819.03
2022-12-27T07:56:29.897Z,101818.44
2022-12-27T07:59:00.358Z,101819.38
2022-12-27T08:01:50.839Z,101823.00
2022-12-27T08:04:21.088Z,101814.94
2022-12-27T08:06:49.545Z,101823.00
2022-12-27T08:09:25.440Z,101823.59
2022-12-27T08:11:55.143Z,101826.31
2022-12-27T08:14:23.403Z,101826.63
2022-12-27T08:16:51.949Z,101833.44
2022-12-27T08:19:22.323Z,101832.16
2022-12-27T08:21:50.872Z,101829.84
2022-12-27T08:24:20.567Z,101832.44
2022-12-27T08:26:50.135Z,101835.69
2022-12-27T08:29:18.452Z,101833.34
2022-12-27T08:31:46.588Z,101833.59
2022-12-27T08:34:15.373Z,101819.94
2022-12-27T08:36:54.548Z,101818.47
2022-12-27T08:39:25.051Z,101814.88
2022-12-27T08:41:55.290Z,101813.53
2022-12-27T08:44:25.582Z,101819.47
2022-12-27T08:46:57.086Z,101815.22
2022-12-27T08:49:25.557Z,101821.84
2022-12-27T08:51:56.130Z,101819.09
2022-12-27T08:54:24.897Z,101824.22
2022-12-27T08:56:55.958Z,101825.09
2022-12-27T08:59:24.259Z,101835.13
2022-12-27T09:01:53.141Z,101834.09
2022-12-27T09:04:23.093Z,101834.94
2022-12-27T09:06:51.473Z,101836.56
2022-12-27T09:09:21.521Z,101838.06
2022-12-27T09:11:49.938Z,101851.41
2022-12-27T09:14:18.348Z,101847.63
2022-12-27T09:16:46.403Z,101855.88
2022-12-27T09:19:14.796Z,101858.06
2022-12-27T09:21:43.997Z,101857.03
2022-12-27T09:24:12.883Z,101853.91
2022-12-27T09:26:43.966Z,101850.47
2022-12-27T09:29:12.746Z,101861.03
2022-12-27T09:31:40.906Z,101857.00
2022-12-27T09:34:11.367Z,101852.97
2022-12-27T09:36:42.834Z,101853.88
2022-12-27T09:39:13.712Z,101857.47
2022-12-27T09:42:44.977Z,101852.88
2022-12-27T09:44:48.596Z,101857.91
2022-12-27T09:47:22.735Z,101854.19
2022-12-27T09:49:55.263Z,101857.91
2022-12-27T09:52:29.818Z,101852.69
2022-12-27T09:55:05.425Z,101855.97
2022-12-27T09:57:39.908Z,101845.31
2022-12-27T10:00:17.326Z,101837.31
2022-12-27T10:02:46.074Z,101848.41
2022-12-27T10:05:22.581Z,101836.88
2022-12-27T10:08:06.737Z,101853.75
2022-12-27T10:10:45.792Z,101847.03
2022-12-27T10:13:28.392Z,101857.28
2022-12-27T10:16:07.049Z,101852.03
2022-12-27T10:18:50.163Z,101864.63
2022-12-27T10:21:23.072Z,101865.88
2022-12-27T10:23:56.950Z,101863.53
2022-12-27T10:26:27.391Z,101858.78
2022-12-27T10:29:02.188Z,101855.81
2022-12-27T10:31:33.662Z,101851.56
2022-12-27T10:34:05.058Z,101865.22
2022-12-27T10:36:38.332Z,101855.84
2022-12-27T10:39:16.786Z,101850.94
2022-12-27T10:41:58.166Z,101853.09
2022-12-27T10:44:28.130Z,101836.38
2022-12-27T10:46:59.543Z,101846.78
2022-12-27T10:49:30.102Z,101845.31
2022-12-27T10:54:56.526Z,101848.66
2022-12-27T10:57:32.581Z,101847.72
2022-12-27T11:00:18.671Z,101849.50
2022-12-27T11:02:52.224Z,101845.81
2022-12-27T11:05:25.236Z,101842.59
2022-12-27T11:08:04.580Z,101851.69
2022-12-27T11:10:34.739Z,101850.56
2022-12-27T11:13:09.369Z,101851.13
2022-12-27T11:15:42.633Z,101853.31
2022-12-27T11:18:12.727Z,101844.59
2022-12-27T11:20:46.167Z,101848.59
2022-12-27T11:23:17.299Z,101850.44
2022-12-27T11:25:54.863Z,101835.44
2022-12-27T11:28:33.079Z,101835.69
2022-12-27T11:31:08.065Z,101836.16
2022-12-27T11:33:40.583Z,101836.69
2022-12-27T11:36:14.505Z,101840.25
2022-12-27T11:38:47.809Z,101833.75
2022-12-27T11:41:30.131Z,101830.09
2022-12-27T11:44:04.839Z,101819.78
2022-12-27T11:46:42.579Z,101836.66
2022-12-27T11:49:22.065Z,101818.03
2022-12-27T11:52:35.081Z,101821.28
2022-12-27T11:55:46.901Z,101812.47
2022-12-27T11:58:38.156Z,101804.94
2022-12-27T12:01:36.465Z,101796.66
2022-12-27T12:04:51.071Z,101805.75
2022-12-27T12:07:38.078Z,101806.44
2022-12-27T12:10:18.776Z,101801.50
2022-12-27T12:13:22.047Z,101810.53
2022-12-27T12:16:26.254Z,101806.81
2022-12-27T12:19:09.213Z,101804.06
2022-12-27T12:21:49.119Z,101810.78
2022-12-27T12:24:37.548Z,101810.84
2022-12-27T12:27:24.712Z,101802.34
2022-12-27T12:30:27.456Z,101810.09
2022-12-27T12:33:14.914Z,101803.59
2022-12-27T12:36:09.163Z,101801.31
2022-12-27T12:38:48.087Z,101803.09
2022-12-27T12:41:37.453Z,101795.28
2022-12-27T12:44:44.883Z,101796.78
2022-12-27T12:47:37.883Z,101797.75
2022-12-27T12:50:25.146Z,101788.78
2022-12-27T12:53:20.423Z,101789.78
2022-12-27T12:56:02.085Z,101792.81
2022-12-27T12:58:48.702Z,101778.78
2022-12-27T13:01:35.029Z,101781.03
2022-12-27T13:04:19.544Z,101780.53
2022-12-27T13:07:27.752Z,101777.75
2022-12-27T13:10:19.369Z,101772.47
2022-12-27T13:12:55.594Z,101772.19
2022-12-27T13:15:37.763Z,101765.41
2022-12-27T13:18:21.789Z,101767.94
2022-12-27T13:21:17.127Z,101760.91
2022-12-27T13:24:01.983Z,101758.94
2022-12-27T13:26:38.272Z,101757.69
2022-12-27T13:29:35.170Z,101752.69
2022-12-27T13:32:17.126Z,101754.91
2022-12-27T13:34:58.432Z,101751.66
2022-12-27T13:37:41.028Z,101762.97
2022-12-27T13:40:30.502Z,101765.19
2022-12-27T13:43:37.726Z,101770.00
2022-12-27T13:46:21.791Z,101761.22
2022-12-27T13:49:07.895Z,101766.22
2022-12-27T13:51:45.976Z,101756.69
2022-12-27T13:54:50.366Z,101758.44
2022-12-27T13:57:54.906Z,101760.19
2022-12-27T14:00:25.349Z,101759.16
2022-12-27T14:03:16.172Z,101757.13
2022-12-27T14:06:17.565Z,101756.34
2022-12-27T14:09:27.875Z,101762.06
2022-12-27T14:12:16.679Z,101756.03
2022-12-27T14:14:46.488Z,101752.25
2022-12-27T14:17:26.008Z,101742.97
2022-12-27T14:20:44.036Z,101752.00
2022-12-27T14:23:32.488Z,101752.94
2022-12-27T14:26:46.831Z,101758.19
2022-12-27T14:30:13.929Z,101756.97
2022-12-27T14:33:22.895Z,101757.28
2022-12-27T14:36:20.183Z,101750.19
2022-12-27T14:39:08.667Z,101744.16
2022-12-27T14:42:27.414Z,101745.13
2022-12-27T14:45:28.703Z,101749.38
2022-12-27T14:48:45.642Z,101741.13
2022-12-27T14:52:03.503Z,101737.09
2022-12-27T14:55:22.469Z,101739.81
2022-12-27T14:58:19.660Z,101729.25
2022-12-27T15:01:02.195Z,101727.25
2022-12-27T15:03:48.279Z,101727.97
2022-12-27T15:06:27.783Z,101730.00
2022-12-27T15:09:12.146Z,101734.47
2022-12-27T15:12:04.630Z,101731.72
2022-12-27T15:14:50.748Z,101735.19
2022-12-27T15:17:31.046Z,101738.91
2022-12-27T15:20:27.220Z,101748.63
2022-12-27T15:23:07.055Z,101750.13
2022-12-27T15:25:48.462Z,101739.81
2022-12-27T15:28:25.577Z,101739.28
2022-12-27T15:31:03.347Z,101747.28
2022-12-27T15:33:40.833Z,101745.28
2022-12-27T15:36:16.805Z,101742.50
2022-12-27T15:38:53.892Z,101747.19
2022-12-27T15:41:57.615Z,101745.84
2022-12-27T15:44:47.727Z,101750.03
2022-12-27T15:47:33.890Z,101747.44
2022-12-27T15:50:21.538Z,101745.47
2022-12-27T15:53:09.832Z,101744.50
2022-12-27T15:56:03.421Z,101745.50
2022-12-27T15:58:37.693Z,101743.31
2022-12-27T16:01:30.058Z,101741.56
2022-12-27T16:04:02.198Z,101739.06
2022-12-27T16:06:55.649Z,101735.84
2022-12-27T16:09:39.652Z,101730.09
2022-12-27T16:12:13.274Z,101737.88
2022-12-27T16:14:44.853Z,101723.13
2022-12-27T16:17:34.371Z,101726.66
2022-12-27T16:20:23.575Z,101720.66
2022-12-27T16:22:55.196Z,101719.16
2022-12-27T16:25:34.478Z,101720.19
2022-12-27T16:28:12.407Z,101713.94
2022-12-27T16:31:01.889Z,101712.19
2022-12-27T16:33:34.987Z,101700.69
2022-12-27T16:36:07.870Z,101689.94
2022-12-27T16:38:38.853Z,101691.19
2022-12-27T16:41:18.705Z,101682.66
2022-12-27T16:43:56.013Z,101680.81
2022-12-27T16:46:57.799Z,101673.78
2022-12-27T16:49:51.327Z,101675.09
2022-12-27T16:52:49.059Z,101683.09
2022-12-27T16:55:37.448Z,101683.59
2022-12-27T16:58:25.775Z,101680.81
2022-12-27T17:00:55.535Z,101672.47
2022-12-27T17:03:47.967Z,101681.22
2022-12-27T17:06:52.639Z,101686.47
2022-12-27T17:09:41.853Z,101688.75
2022-12-27T17:12:24.891Z,101691.22
2022-12-27T17:15:05.851Z,101687.94
2022-12-27T17:17:35.509Z,101688.09
2022-12-27T17:20:07.336Z,101691.88
2022-12-27T17:22:41.438Z,101679.59
2022-12-27T17:25:37.258Z,101682.09
2022-12-27T17:28:14.629Z,101685.31
2022-12-27T17:30:52.772Z,101691.81
2022-12-27T17:33:40.593Z,101691.13
2022-12-27T17:36:29.028Z,101684.13
2022-12-27T17:39:14.313Z,101685.69
2022-12-27T17:42:26.147Z,101682.16
2022-12-27T17:45:12.248Z,101677.66
2022-12-27T17:47:54.998Z,101672.91
2022-12-27T17:50:26.631Z,101671.41
2022-12-27T17:53:44.849Z,101669.09
2022-12-27T17:56:35.938Z,101659.78
2022-12-27T17:59:08.497Z,101655.91
2022-12-27T18:01:47.677Z,101644.13
2022-12-27T18:04:35.609Z,101641.75
2022-12-27T18:07:08.301Z,101645.63
2022-12-27T18:09:44.692Z,101638.31
2022-12-27T18:12:21.825Z,101647.44
2022-12-27T18:14:58.449Z,101645.88
2022-12-27T18:17:32.659Z,101634.78
2022-12-27T18:20:29.102Z,101638.56
2022-12-27T18:23:15.156Z,101635.88
2022-12-27T18:26:13.484Z,101631.38
2022-12-27T18:28:45.848Z,101623.53
2022-12-27T18:31:21.451Z,101624.00
2022-12-27T18:33:52.376Z,101627.38
2022-12-27T18:36:28.921Z,101627.78
2022-12-27T18:39:02.774Z,101622.97
2022-12-27T18:41:44.228Z,101629.06
2022-12-27T18:44:23.050Z,101617.47
2022-12-27T18:47:03.456Z,101620.88
2022-12-27T18:49:35.675Z,101624.47
2022-12-27T18:52:17.063Z,101618.91
2022-12-27T18:54:46.082Z,101622.50
2022-12-27T18:57:29.536Z,101621.84
2022-12-27T19:00:03.494Z,101613.53
2022-12-27T19:02:39.924Z,101614.22
2022-12-27T19:05:28.468Z,101608.66
2022-12-27T19:08:11.433Z,101608.53
2022-12-27T19:10:49.261Z,101608.44
2022-12-27T19:13:24.634Z,101608.28
2022-12-27T19:15:55.229Z,101607.78
2022-12-27T19:18:29.255Z,101600.53
2022-12-27T19:21:00.518Z,101596.47
2022-12-27T19:23:34.761Z,101593.44
2022-12-27T19:26:07.661Z,101593.44
2022-12-27T19:28:38.141Z,101605.91
2022-12-27T19:31:17.595Z,101590.03
2022-12-27T19:33:50.761Z,101597.69
2022-12-27T19:36:25.858Z,101590.59
2022-12-27T19:38:58.252Z,101585.31
2022-12-27T19:41:28.175Z,101588.03
2022-12-27T19:43:59.304Z,101581.25
2022-12-27T19:46:31.367Z,101574.34
2022-12-27T19:51:58.990Z,101572.75
2022-12-27T19:54:27.220Z,101570.78
2022-12-27T19:56:56.092Z,101555.09
2022-12-27T19:59:27.381Z,101547.75
2022-12-27T20:01:56.028Z,101551.31
2022-12-27T20:04:25.001Z,101549.25
2022-12-27T20:06:55.352Z,101554.13
2022-12-27T20:09:24.760Z,101544.88
2022-12-27T20:11:56.077Z,101542.06
2022-12-27T20:14:30.915Z,101536.59
2022-12-27T20:16:59.195Z,101545.53
2022-12-27T20:19:37.709Z,101535.44
2022-12-27T20:22:06.830Z,101527.91
2022-12-27T20:24:36.928Z,101535.53
2022-12-27T20:27:05.685Z,101528.56
2022-12-27T20:29:35.496Z,101529.03
2022-12-27T20:32:06.298Z,101530.28
2022-12-27T20:34:37.944Z,101524.50
2022-12-27T20:37:08.564Z,101517.50
2022-12-27T20:39:37.122Z,101512.13
2022-12-27T20:42:06.258Z,101512.59
2022-12-27T20:44:35.856Z,101510.75
2022-12-27T20:47:05.476Z,101502.69
2022-12-27T20:49:34.618Z,101504.06
2022-12-27T20:52:03.211Z,101505.25
2022-12-27T20:54:33.247Z,101503.16
2022-12-27T20:57:04.708Z,101499.94
2022-12-27T20:59:35.834Z,101508.53
2022-12-27T21:02:05.047Z,101505.72
2022-12-27T21:04:33.916Z,101490.91
2022-12-27T21:07:03.218Z,101494.94
2022-12-27T21:09:35.371Z,101488.41
2022-12-27T21:12:05.257Z,101486.56
2022-12-27T21:14:37.263Z,101496.94
2022-12-27T21:17:06.205Z,101495.72
2022-12-27T21:19:35.899Z,101503.44
2022-12-27T21:22:06.246Z,101509.41
2022-12-27T21:24:34.423Z,101506.41
2022-12-27T21:27:02.781Z,101507.72
2022-12-27T21:29:31.390Z,101501.59
2022-12-27T21:32:01.609Z,101494.97
2022-12-27T21:34:30.180Z,101489.50
2022-12-27T21:37:01.682Z,101482.44
2022-12-27T21:39:33.494Z,101479.88
2022-12-27T21:42:02.342Z,101477.50
2022-12-27T21:44:31.474Z,101478.81
2022-12-27T21:47:01.391Z,101475.25
2022-12-27T21:49:29.681Z,101481.78
2022-12-27T21:51:58.233Z,101481.41
2022-12-27T21:54:28.921Z,101475.94
2022-12-27T21:56:57.398Z,101483.28
2022-12-27T21:59:26.903Z,101483.28
2022-12-27T22:01:55.381Z,101475.53
2022-12-27T22:04:25.106Z,101468.94
2022-12-27T22:06:53.496Z,101475.44
2022-12-27T22:09:22.050Z,101462.97
2022-12-27T22:11:50.162Z,101453.91
2022-12-27T22:14:23.362Z,101456.47
2022-12-27T22:16:53.774Z,101453.47
2022-12-27T22:19:21.986Z,101442.81
2022-12-27T22:21:53.200Z,101447.53
2022-12-27T22:24:22.090Z,101440.53
2022-12-27T22:26:51.664Z,101439.59
2022-12-27T22:29:21.585Z,101439.97
2022-12-27T22:31:51.027Z,101440.66
2022-12-27T22:34:19.465Z,101444.41
2022-12-27T22:36:52.598Z,101444.22
2022-12-27T22:39:20.876Z,101445.06
2022-12-27T22:41:49.135Z,101439.97
2022-12-27T22:44:18.843Z,101446.38
2022-12-27T22:49:36.625Z,101441.19
2022-12-27T22:52:06.926Z,101438.34
2022-12-27T22:55:05.032Z,101435.00
2022-12-27T22:57:23.460Z,101436.72
2022-12-27T22:59:52.116Z,101430.56
2022-12-27T23:02:20.122Z,101423.47
2022-12-27T23:04:49.812Z,101423.88
2022-12-27T23:07:21.067Z,101425.09
2022-12-27T23:10:09.567Z,101415.56
2022-12-27T23:12:37.658Z,101420.09
2022-12-27T23:15:08.628Z,101418.09
2022-12-27T23:17:37.901Z,101419.22
2022-12-27T23:20:06.382Z,101404.03
2022-12-27T23:22:35.979Z,101413.28
2022-12-27T23:25:04.328Z,101411.22
2022-12-27T23:27:32.645Z,101407.69
2022-12-27T23:30:00.743Z,101409.38
2022-12-27T23:32:30.542Z,101410.88
2022-12-27T23:34:59.560Z,101416.25
2022-12-27T23:37:27.840Z,101413.22
2022-12-27T23:39:57.575Z,101402.94
2022-12-27T23:42:26.783Z,101402.81
2022-12-27T23:44:55.384Z,101394.72
2022-12-27T23:47:23.440Z,101392.13
2022-12-27T23:49:55.309Z,101384.13
2022-12-27T23:52:24.967Z,101375.78
2022-12-27T23:54:54.603Z,101366.03
2022-12-27T23:57:24.158Z,101366.69
2022-12-27T23:59:55.413Z,101364.19
